Ertholm — OVJX — position and weather

sailwx.info

Track history (hours):
 
Tides and Currents Weather Stations Pressure Air Temp Water Temp Dewpoint Dewpoint Depression Visibility Wind Speed Wind Dir Waves Ship Positions

Ertholm

Last reported at 2015-May-23 00:33 UTC. Time now 2015-May-23 01:17 UTC.
Position N 55°13' E 014°58'.

Length 38 m; draft 2.3 m.

Type: Ship. MMSI: 219000751.

Date/timePositionNaut miles runAvg speedWind from/ knotsBaromVisibWave heightAir tempDewpointWater temp
2015-May-23 00:33N 55°13' E 014°58'0 0.0
2015-May-22 23:33N 55°13' E 014°58'0 0.0
2015-May-22 22:33N 55°13' E 014°58'0 0.0
2015-May-22 21:33N 55°13' E 014°58'0 0.0
2015-May-22 20:33N 55°13' E 014°58'0 0.0
2015-May-22 19:33N 55°13' E 014°58'0 0.0
2015-May-22 18:34N 55°13' E 014°58'0 0.0
2015-May-22 17:33N 55°13' E 014°58'0 0.0
2015-May-22 16:33N 55°13' E 014°58'0 0.0
2015-May-22 15:33N 55°13' E 014°58'7 6.6
2015-May-22 14:33N 55°17' E 015°07'2 2.3
2015-May-22 13:33N 55°16' E 015°04'1 0.7
2015-May-22 12:33N 55°16' E 015°04'5 5.0
2015-May-22 11:33N 55°19' E 015°11'10 9.7
2015-May-22 10:34N 55°13' E 014°58'6 5.7
2015-May-22 09:33N 55°17' E 015°06'0 0.1
2015-May-22 08:33N 55°17' E 015°06'6 6.0
2015-May-22 07:33N 55°13' E 014°58'0 0.0
2015-May-22 06:33N 55°13' E 014°58'0 0.0
2015-May-22 05:33N 55°13' E 014°58'0 0.0
2015-May-22 04:33N 55°13' E 014°58'0 0.0
2015-May-22 03:33N 55°13' E 014°58'0 0.0
2015-May-22 02:33N 55°13' E 014°58'0 0.0
2015-May-22 01:33N 55°13' E 014°58'0 0.0
2015-May-22 00:33N 55°13' E 014°58'0 0.0
2015-May-21 23:33N 55°13' E 014°58'0 0.0
2015-May-21 22:33N 55°13' E 014°58'0 0.0
2015-May-21 21:33N 55°13' E 014°58'0 0.0
2015-May-21 20:33N 55°13' E 014°58'0 0.0
2015-May-21 19:33N 55°13' E 014°58'0 0.0
2015-May-21 18:33N 55°13' E 014°58'0 0.0
2015-May-21 17:32N 55°13' E 014°58'0 0.0
2015-May-21 16:33N 55°13' E 014°58'0 0.0
2015-May-21 15:33N 55°13' E 014°58'7 6.7
2015-May-21 14:33N 55°17' E 015°07'3 2.5
2015-May-21 13:33N 55°16' E 015°04'1 0.5
2015-May-21 12:33N 55°16' E 015°04'5 5.2
2015-May-21 11:33N 55°19' E 015°11'10 9.8
2015-May-21 10:33N 55°13' E 014°58'6 6.0
2015-May-21 09:33N 55°17' E 015°06'0 0.1
2015-May-21 08:33N 55°17' E 015°06'6 6.0
2015-May-21 07:33N 55°13' E 014°58'0 0.0
2015-May-21 06:33N 55°13' E 014°58'0 0.0
2015-May-21 05:33N 55°13' E 014°58'0 0.0
2015-May-21 04:33N 55°13' E 014°58'0 0.0
2015-May-21 03:33N 55°13' E 014°58'0 0.0
2015-May-21 02:33N 55°13' E 014°58'0 0.0
2015-May-21 01:33N 55°13' E 014°58'0 0.0
2015-May-21 00:33N 55°13' E 014°58'0 0.0
2015-May-20 23:34N 55°13' E 014°58'0 0.0
2015-May-20 22:33N 55°13' E 014°58'0 0.0
2015-May-20 21:33N 55°13' E 014°58'0 0.0
2015-May-20 20:33N 55°13' E 014°58'0 0.0
2015-May-20 19:33N 55°13' E 014°58'0 0.0
2015-May-20 18:33N 55°13' E 014°58'0 0.0
2015-May-20 17:33N 55°13' E 014°58'0 0.0
2015-May-20 16:33N 55°13' E 014°58'0 0.0
2015-May-20 15:33N 55°13' E 014°58'7 6.7
2015-May-20 14:33N 55°17' E 015°07'3 3.1
2015-May-20 13:33N 55°15' E 015°03'1 1.2
2015-May-20 12:33N 55°16' E 015°04'5 5.1
2015-May-20 11:33N 55°19' E 015°11'10 9.8
2015-May-20 10:33N 55°13' E 014°58'6 6.1
2015-May-20 09:33N 55°17' E 015°06'0 0.5
2015-May-20 08:33N 55°17' E 015°05'6 5.7
2015-May-20 07:33N 55°13' E 014°58'0 0.0
2015-May-20 06:33N 55°13' E 014°58'0 0.0
2015-May-20 05:33N 55°13' E 014°58'0 0.0
2015-May-20 04:33N 55°13' E 014°58'0 0.0
2015-May-20 03:33N 55°13' E 014°58'0 0.0
2015-May-20 02:33N 55°13' E 014°58'0 0.0
2015-May-20 01:33N 55°13' E 014°58'0 0.0
2015-May-20 00:33N 55°13' E 014°58'0 0.0
2015-May-19 23:34N 55°13' E 014°58'0 0.0
2015-May-19 22:33N 55°13' E 014°58'0 0.0
2015-May-19 21:33N 55°13' E 014°58'0 0.0
2015-May-19 20:33N 55°13' E 014°58'0 0.0
2015-May-19 19:33N 55°13' E 014°58'0 0.0
2015-May-19 18:33N 55°13' E 014°58'0 0.0
2015-May-19 17:33N 55°13' E 014°58'0 0.0
2015-May-19 16:33N 55°13' E 014°58'0 0.0
2015-May-19 15:33N 55°13' E 014°58'7 7.4
2015-May-19 14:33N 55°18' E 015°07'3 3.0
2015-May-19 13:33N 55°16' E 015°04'1 0.7
2015-May-19 12:33N 55°16' E 015°04'5 4.8
2015-May-19 11:33N 55°19' E 015°11'9 9.5
2015-May-19 10:33N 55°13' E 014°59'6 5.7
2015-May-19 09:33N 55°17' E 015°06'0 0.2
2015-May-19 08:33N 55°17' E 015°06'6 6.0
2015-May-19 07:33N 55°13' E 014°58'0 0.0
2015-May-19 06:33N 55°13' E 014°58'0 0.0
2015-May-19 05:33N 55°13' E 014°58'0 0.0
2015-May-19 04:33N 55°13' E 014°58'0 0.0
2015-May-19 03:33N 55°13' E 014°58'0 0.0
2015-May-19 02:33N 55°13' E 014°58'0 0.0
2015-May-19 01:33N 55°13' E 014°58'0 0.0
2015-May-19 00:33N 55°13' E 014°58'0 0.0
2015-May-18 23:33N 55°13' E 014°58'0 0.0
2015-May-18 22:33N 55°13' E 014°58'0 0.0
2015-May-18 21:33N 55°13' E 014°58'0 0.0
2015-May-18 20:34N 55°13' E 014°58'0 0.0
2015-May-18 19:33N 55°13' E 014°58'0 0.0
2015-May-18 18:33N 55°13' E 014°58'0 0.0
2015-May-18 17:33N 55°13' E 014°58'0 0.0
2015-May-18 16:33N 55°13' E 014°58'0 0.0
2015-May-18 15:33N 55°13' E 014°58'6 6.2
2015-May-18 14:33N 55°17' E 015°06'3 2.6
2015-May-18 13:33N 55°15' E 015°03'0 0.1
2015-May-18 12:34N 55°15' E 015°02'6 6.3
2015-May-18 11:33N 55°19' E 015°11'10 9.9
2015-May-18 10:33N 55°13' E 014°58'2 2.2
2015-May-18 09:33N 55°14' E 015°01'4 4.4
2015-May-18 08:33N 55°17' E 015°06'7 6.7
2015-May-18 07:33N 55°13' E 014°58'0 0.0
2015-May-18 06:33N 55°13' E 014°58'0 0.0
2015-May-18 05:33N 55°13' E 014°58'0 0.0
2015-May-18 04:33N 55°13' E 014°58'0 0.0
2015-May-18 03:33N 55°13' E 014°58'0 0.0
2015-May-18 02:33N 55°13' E 014°58'0 0.0
2015-May-18 01:33N 55°13' E 014°58'0 0.0
2015-May-18 00:33N 55°13' E 014°58'0 0.0
2015-May-17 23:33N 55°13' E 014°58'0 0.0
2015-May-17 22:33N 55°13' E 014°58'0 0.0
2015-May-17 21:33N 55°13' E 014°58'0 0.0
2015-May-17 20:33N 55°13' E 014°58'0 0.0
2015-May-17 19:33N 55°13' E 014°58'0 0.0
2015-May-17 18:33N 55°13' E 014°58'0 0.0
2015-May-17 17:33N 55°13' E 014°58'0 0.0
2015-May-17 16:33N 55°13' E 014°58'0 0.0
2015-May-17 15:33N 55°13' E 014°58'0 0.0
2015-May-17 14:34N 55°13' E 014°58'0 0.0
2015-May-17 13:33N 55°13' E 014°58'4 4.2
2015-May-17 12:33N 55°15' E 015°05'6 5.7
2015-May-17 11:33N 55°19' E 015°11'0 0.0
2015-May-17 10:33N 55°19' E 015°11'0 0.0
2015-May-17 09:33N 55°19' E 015°11'6 6.2
2015-May-17 08:33N 55°17' E 015°01'5 4.9
2015-May-17 07:33N 55°13' E 014°58'0 0.0
2015-May-17 06:33N 55°13' E 014°58'0 0.0
2015-May-17 05:33N 55°13' E 014°58'0 0.0
2015-May-17 04:33N 55°13' E 014°58'0 0.0
2015-May-17 03:33N 55°13' E 014°58'0 0.0
2015-May-17 02:33N 55°13' E 014°58'0 0.0
2015-May-17 01:33N 55°13' E 014°58'0 0.0
2015-May-17 00:33N 55°13' E 014°58'0 0.0
2015-May-16 23:33N 55°13' E 014°58'0 0.0
2015-May-16 22:33N 55°13' E 014°58'0 0.0
2015-May-16 21:33N 55°13' E 014°58'0 0.0
2015-May-16 20:33N 55°13' E 014°58'0 0.0
2015-May-16 19:33N 55°13' E 014°58'0 0.0
2015-May-16 18:33N 55°13' E 014°58'0 0.0
2015-May-16 17:33N 55°13' E 014°58'0 0.0
2015-May-16 16:33N 55°13' E 014°58'0 0.0
2015-May-16 15:33N 55°13' E 014°58'0 0.0
2015-May-16 14:33N 55°13' E 014°58'0 0.0
2015-May-16 13:33N 55°13' E 014°58'4 3.8
2015-May-16 12:33N 55°15' E 015°03'6 6.0
2015-May-16 11:33N 55°19' E 015°11'0 0.0
2015-May-16 10:33N 55°19' E 015°11'0 0.0
2015-May-16 09:33N 55°19' E 015°11'4 3.8
2015-May-16 08:33N 55°17' E 015°06'6 6.0
2015-May-16 07:33N 55°13' E 014°58'0 0.0
2015-May-16 06:33N 55°13' E 014°58'0 0.0
2015-May-16 05:33N 55°13' E 014°58'0 0.0
2015-May-16 04:33N 55°13' E 014°58'0 0.0
2015-May-16 03:33N 55°13' E 014°58'0 0.0
2015-May-16 02:33N 55°13' E 014°58'0 0.0
2015-May-16 01:33N 55°13' E 014°58'0 0.0
2015-May-16 00:33N 55°13' E 014°58'0 0.0
2015-May-15 23:33N 55°13' E 014°58'0 0.0
2015-May-15 22:33N 55°13' E 014°58'0 0.0
2015-May-15 21:33N 55°13' E 014°58'0 0.0
2015-May-15 20:33N 55°13' E 014°58'0 0.0
2015-May-15 19:33N 55°13' E 014°58'0 0.0
2015-May-15 18:33N 55°13' E 014°58'0 0.0
2015-May-15 17:33N 55°13' E 014°58'0 0.0
2015-May-15 16:33N 55°13' E 014°58'0 0.0
2015-May-15 15:33N 55°13' E 014°58'0 0.0
2015-May-15 14:33N 55°13' E 014°58'0 0.0
2015-May-15 13:33N 55°13' E 014°58'4 3.7
2015-May-15 12:33N 55°15' E 015°03'6 6.1
2015-May-15 11:33N 55°19' E 015°11'0 0.0
2015-May-15 10:33N 55°19' E 015°11'0 0.1
2015-May-15 09:33N 55°19' E 015°11'4 3.8
2015-May-15 08:33N 55°17' E 015°06'6 6.0
2015-May-15 07:33N 55°13' E 014°58'0 0.0
2015-May-15 06:33N 55°13' E 014°58'0 0.0
2015-May-15 05:33N 55°13' E 014°58'0 0.0
2015-May-15 04:33N 55°13' E 014°58'0 0.0
2015-May-15 03:33N 55°13' E 014°58'0 0.0
2015-May-15 02:33N 55°13' E 014°58'0 0.0
2015-May-15 01:33N 55°13' E 014°58'0 0.0
2015-May-15 00:33N 55°13' E 014°58'0 0.0
2015-May-14 23:33N 55°13' E 014°58'0 0.0
2015-May-14 22:33N 55°13' E 014°58'0 0.0
2015-May-14 21:33N 55°13' E 014°58'0 0.0
2015-May-14 20:33N 55°13' E 014°58'0 0.0
2015-May-14 19:33N 55°13' E 014°58'0 0.0
2015-May-14 18:33N 55°13' E 014°58'0 0.0
2015-May-14 17:33N 55°13' E 014°58'0 0.0
2015-May-14 16:33N 55°13' E 014°58'0 0.0
2015-May-14 15:33N 55°13' E 014°58'0 0.0
2015-May-14 14:33N 55°13' E 014°58'0 0.0
2015-May-14 13:33N 55°13' E 014°58'4 3.9
2015-May-14 12:33N 55°16' E 015°03'6 5.9
2015-May-14 11:33N 55°19' E 015°11'0 0.0
2015-May-14 10:33N 55°19' E 015°11'0 0.0
2015-May-14 09:33N 55°19' E 015°11'4 4.3
2015-May-14 08:33N 55°18' E 015°04'6 6.0
2015-May-14 07:33N 55°13' E 014°58'0 0.0
2015-May-14 06:33N 55°13' E 014°58'0 0.0
2015-May-14 05:33N 55°13' E 014°58'0 0.0
2015-May-14 04:33N 55°13' E 014°58'0 0.0
2015-May-14 03:33N 55°13' E 014°58'0 0.0
2015-May-14 02:33N 55°13' E 014°58'0 0.0
2015-May-14 01:33N 55°13' E 014°58'0 0.0
2015-May-14 00:32N 55°13' E 014°58'0 0.0
2015-May-13 23:33N 55°13' E 014°58'0 0.0
2015-May-13 22:33N 55°13' E 014°58'0 0.0
2015-May-13 21:33N 55°13' E 014°58'0 0.0
2015-May-13 20:33N 55°13' E 014°58'0 0.0
2015-May-13 19:33N 55°13' E 014°58'0 0.0
2015-May-13 18:33N 55°13' E 014°58'0 0.0
2015-May-13 17:33N 55°13' E 014°58'0 0.0
2015-May-13 16:33N 55°13' E 014°58'0 0.0
2015-May-13 15:33N 55°13' E 014°58'0 0.0
2015-May-13 14:33N 55°13' E 014°58'0 0.0
2015-May-13 13:33N 55°13' E 014°58'4 4.1
2015-May-13 12:33N 55°16' E 015°02'6 5.9
2015-May-13 11:33N 55°19' E 015°11'0 0.0
2015-May-13 10:33N 55°19' E 015°11'0 0.0
2015-May-13 09:33N 55°19' E 015°11'4 4.4
2015-May-13 08:33N 55°17' E 015°04'6 5.6
2015-May-13 07:33N 55°13' E 014°58'0 0.0
2015-May-13 06:33N 55°13' E 014°58'0 0.0
2015-May-13 05:33N 55°13' E 014°58'0 0.0
2015-May-13 04:33N 55°13' E 014°58'0 0.0
2015-May-13 03:33N 55°13' E 014°58'0 0.0
2015-May-13 02:33N 55°13' E 014°58'0 0.0
2015-May-13 01:33N 55°13' E 014°58'0 0.0
2015-May-13 00:33N 55°13' E 014°58'  
Track history (hours):
 
Tides and Currents Weather Stations Pressure Air Temp Water Temp Dewpoint Dewpoint Depression Visibility Wind Speed Wind Dir Waves Ship Positions

Ertholm

Last reported at 2015-May-23 00:33 UTC. Time now 2015-May-23 01:17 UTC.
Position N 55°13' E 014°58'.

Length 38 m; draft 2.3 m.

Type: Ship. MMSI: 219000751.

Date/timePositionNaut miles runAvg speedWind from/ knotsBaromVisibWave heightAir tempDewpointWater temp
2015-May-23 00:33N 55°13' E 014°58'0 0.0
2015-May-22 23:33N 55°13' E 014°58'0 0.0
2015-May-22 22:33N 55°13' E 014°58'0 0.0
2015-May-22 21:33N 55°13' E 014°58'0 0.0
2015-May-22 20:33N 55°13' E 014°58'0 0.0
2015-May-22 19:33N 55°13' E 014°58'0 0.0
2015-May-22 18:34N 55°13' E 014°58'0 0.0
2015-May-22 17:33N 55°13' E 014°58'0 0.0
2015-May-22 16:33N 55°13' E 014°58'0 0.0
2015-May-22 15:33N 55°13' E 014°58'7 6.6
2015-May-22 14:33N 55°17' E 015°07'2 2.3
2015-May-22 13:33N 55°16' E 015°04'1 0.7
2015-May-22 12:33N 55°16' E 015°04'5 5.0
2015-May-22 11:33N 55°19' E 015°11'10 9.7
2015-May-22 10:34N 55°13' E 014°58'6 5.7
2015-May-22 09:33N 55°17' E 015°06'0 0.1
2015-May-22 08:33N 55°17' E 015°06'6 6.0
2015-May-22 07:33N 55°13' E 014°58'0 0.0
2015-May-22 06:33N 55°13' E 014°58'0 0.0
2015-May-22 05:33N 55°13' E 014°58'0 0.0
2015-May-22 04:33N 55°13' E 014°58'0 0.0
2015-May-22 03:33N 55°13' E 014°58'0 0.0
2015-May-22 02:33N 55°13' E 014°58'0 0.0
2015-May-22 01:33N 55°13' E 014°58'0 0.0
2015-May-22 00:33N 55°13' E 014°58'0 0.0
2015-May-21 23:33N 55°13' E 014°58'0 0.0
2015-May-21 22:33N 55°13' E 014°58'0 0.0
2015-May-21 21:33N 55°13' E 014°58'0 0.0
2015-May-21 20:33N 55°13' E 014°58'0 0.0
2015-May-21 19:33N 55°13' E 014°58'0 0.0
2015-May-21 18:33N 55°13' E 014°58'0 0.0
2015-May-21 17:32N 55°13' E 014°58'0 0.0
2015-May-21 16:33N 55°13' E 014°58'0 0.0
2015-May-21 15:33N 55°13' E 014°58'7 6.7
2015-May-21 14:33N 55°17' E 015°07'3 2.5
2015-May-21 13:33N 55°16' E 015°04'1 0.5
2015-May-21 12:33N 55°16' E 015°04'5 5.2
2015-May-21 11:33N 55°19' E 015°11'10 9.8
2015-May-21 10:33N 55°13' E 014°58'6 6.0
2015-May-21 09:33N 55°17' E 015°06'0 0.1
2015-May-21 08:33N 55°17' E 015°06'6 6.0
2015-May-21 07:33N 55°13' E 014°58'0 0.0
2015-May-21 06:33N 55°13' E 014°58'0 0.0
2015-May-21 05:33N 55°13' E 014°58'0 0.0
2015-May-21 04:33N 55°13' E 014°58'0 0.0
2015-May-21 03:33N 55°13' E 014°58'0 0.0
2015-May-21 02:33N 55°13' E 014°58'0 0.0
2015-May-21 01:33N 55°13' E 014°58'0 0.0
2015-May-21 00:33N 55°13' E 014°58'0 0.0
2015-May-20 23:34N 55°13' E 014°58'0 0.0
2015-May-20 22:33N 55°13' E 014°58'0 0.0
2015-May-20 21:33N 55°13' E 014°58'0 0.0
2015-May-20 20:33N 55°13' E 014°58'0 0.0
2015-May-20 19:33N 55°13' E 014°58'0 0.0
2015-May-20 18:33N 55°13' E 014°58'0 0.0
2015-May-20 17:33N 55°13' E 014°58'0 0.0
2015-May-20 16:33N 55°13' E 014°58'0 0.0
2015-May-20 15:33N 55°13' E 014°58'7 6.7
2015-May-20 14:33N 55°17' E 015°07'3 3.1
2015-May-20 13:33N 55°15' E 015°03'1 1.2
2015-May-20 12:33N 55°16' E 015°04'5 5.1
2015-May-20 11:33N 55°19' E 015°11'10 9.8
2015-May-20 10:33N 55°13' E 014°58'6 6.1
2015-May-20 09:33N 55°17' E 015°06'0 0.5
2015-May-20 08:33N 55°17' E 015°05'6 5.7
2015-May-20 07:33N 55°13' E 014°58'0 0.0
2015-May-20 06:33N 55°13' E 014°58'0 0.0
2015-May-20 05:33N 55°13' E 014°58'0 0.0
2015-May-20 04:33N 55°13' E 014°58'0 0.0
2015-May-20 03:33N 55°13' E 014°58'0 0.0
2015-May-20 02:33N 55°13' E 014°58'0 0.0
2015-May-20 01:33N 55°13' E 014°58'0 0.0
2015-May-20 00:33N 55°13' E 014°58'0 0.0
2015-May-19 23:34N 55°13' E 014°58'0 0.0
2015-May-19 22:33N 55°13' E 014°58'0 0.0
2015-May-19 21:33N 55°13' E 014°58'0 0.0
2015-May-19 20:33N 55°13' E 014°58'0 0.0
2015-May-19 19:33N 55°13' E 014°58'0 0.0
2015-May-19 18:33N 55°13' E 014°58'0 0.0
2015-May-19 17:33N 55°13' E 014°58'0 0.0
2015-May-19 16:33N 55°13' E 014°58'0 0.0
2015-May-19 15:33N 55°13' E 014°58'7 7.4
2015-May-19 14:33N 55°18' E 015°07'3 3.0
2015-May-19 13:33N 55°16' E 015°04'1 0.7
2015-May-19 12:33N 55°16' E 015°04'5 4.8
2015-May-19 11:33N 55°19' E 015°11'9 9.5
2015-May-19 10:33N 55°13' E 014°59'6 5.7
2015-May-19 09:33N 55°17' E 015°06'0 0.2
2015-May-19 08:33N 55°17' E 015°06'6 6.0
2015-May-19 07:33N 55°13' E 014°58'0 0.0
2015-May-19 06:33N 55°13' E 014°58'0 0.0
2015-May-19 05:33N 55°13' E 014°58'0 0.0
2015-May-19 04:33N 55°13' E 014°58'0 0.0
2015-May-19 03:33N 55°13' E 014°58'0 0.0
2015-May-19 02:33N 55°13' E 014°58'0 0.0
2015-May-19 01:33N 55°13' E 014°58'0 0.0
2015-May-19 00:33N 55°13' E 014°58'0 0.0
2015-May-18 23:33N 55°13' E 014°58'0 0.0
2015-May-18 22:33N 55°13' E 014°58'0 0.0
2015-May-18 21:33N 55°13' E 014°58'0 0.0
2015-May-18 20:34N 55°13' E 014°58'0 0.0
2015-May-18 19:33N 55°13' E 014°58'0 0.0
2015-May-18 18:33N 55°13' E 014°58'0 0.0
2015-May-18 17:33N 55°13' E 014°58'0 0.0
2015-May-18 16:33N 55°13' E 014°58'0 0.0
2015-May-18 15:33N 55°13' E 014°58'6 6.2
2015-May-18 14:33N 55°17' E 015°06'3 2.6
2015-May-18 13:33N 55°15' E 015°03'0 0.1
2015-May-18 12:34N 55°15' E 015°02'6 6.3
2015-May-18 11:33N 55°19' E 015°11'10 9.9
2015-May-18 10:33N 55°13' E 014°58'2 2.2
2015-May-18 09:33N 55°14' E 015°01'4 4.4
2015-May-18 08:33N 55°17' E 015°06'7 6.7
2015-May-18 07:33N 55°13' E 014°58'0 0.0
2015-May-18 06:33N 55°13' E 014°58'0 0.0
2015-May-18 05:33N 55°13' E 014°58'0 0.0
2015-May-18 04:33N 55°13' E 014°58'0 0.0
2015-May-18 03:33N 55°13' E 014°58'0 0.0
2015-May-18 02:33N 55°13' E 014°58'0 0.0
2015-May-18 01:33N 55°13' E 014°58'0 0.0
2015-May-18 00:33N 55°13' E 014°58'0 0.0
2015-May-17 23:33N 55°13' E 014°58'0 0.0
2015-May-17 22:33N 55°13' E 014°58'0 0.0
2015-May-17 21:33N 55°13' E 014°58'0 0.0
2015-May-17 20:33N 55°13' E 014°58'0 0.0
2015-May-17 19:33N 55°13' E 014°58'0 0.0
2015-May-17 18:33N 55°13' E 014°58'0 0.0
2015-May-17 17:33N 55°13' E 014°58'0 0.0
2015-May-17 16:33N 55°13' E 014°58'0 0.0
2015-May-17 15:33N 55°13' E 014°58'0 0.0
2015-May-17 14:34N 55°13' E 014°58'0 0.0
2015-May-17 13:33N 55°13' E 014°58'4 4.2
2015-May-17 12:33N 55°15' E 015°05'6 5.7
2015-May-17 11:33N 55°19' E 015°11'0 0.0
2015-May-17 10:33N 55°19' E 015°11'0 0.0
2015-May-17 09:33N 55°19' E 015°11'6 6.2
2015-May-17 08:33N 55°17' E 015°01'5 4.9
2015-May-17 07:33N 55°13' E 014°58'0 0.0
2015-May-17 06:33N 55°13' E 014°58'0 0.0
2015-May-17 05:33N 55°13' E 014°58'0 0.0
2015-May-17 04:33N 55°13' E 014°58'0 0.0
2015-May-17 03:33N 55°13' E 014°58'0 0.0
2015-May-17 02:33N 55°13' E 014°58'0 0.0
2015-May-17 01:33N 55°13' E 014°58'0 0.0
2015-May-17 00:33N 55°13' E 014°58'0 0.0
2015-May-16 23:33N 55°13' E 014°58'0 0.0
2015-May-16 22:33N 55°13' E 014°58'0 0.0
2015-May-16 21:33N 55°13' E 014°58'0 0.0
2015-May-16 20:33N 55°13' E 014°58'0 0.0
2015-May-16 19:33N 55°13' E 014°58'0 0.0
2015-May-16 18:33N 55°13' E 014°58'0 0.0
2015-May-16 17:33N 55°13' E 014°58'0 0.0
2015-May-16 16:33N 55°13' E 014°58'0 0.0
2015-May-16 15:33N 55°13' E 014°58'0 0.0
2015-May-16 14:33N 55°13' E 014°58'0 0.0
2015-May-16 13:33N 55°13' E 014°58'4 3.8
2015-May-16 12:33N 55°15' E 015°03'6 6.0
2015-May-16 11:33N 55°19' E 015°11'0 0.0
2015-May-16 10:33N 55°19' E 015°11'0 0.0
2015-May-16 09:33N 55°19' E 015°11'4 3.8
2015-May-16 08:33N 55°17' E 015°06'6 6.0
2015-May-16 07:33N 55°13' E 014°58'0 0.0
2015-May-16 06:33N 55°13' E 014°58'0 0.0
2015-May-16 05:33N 55°13' E 014°58'0 0.0
2015-May-16 04:33N 55°13' E 014°58'0 0.0
2015-May-16 03:33N 55°13' E 014°58'0 0.0
2015-May-16 02:33N 55°13' E 014°58'0 0.0
2015-May-16 01:33N 55°13' E 014°58'0 0.0
2015-May-16 00:33N 55°13' E 014°58'0 0.0
2015-May-15 23:33N 55°13' E 014°58'0 0.0
2015-May-15 22:33N 55°13' E 014°58'0 0.0
2015-May-15 21:33N 55°13' E 014°58'0 0.0
2015-May-15 20:33N 55°13' E 014°58'0 0.0
2015-May-15 19:33N 55°13' E 014°58'0 0.0
2015-May-15 18:33N 55°13' E 014°58'0 0.0
2015-May-15 17:33N 55°13' E 014°58'0 0.0
2015-May-15 16:33N 55°13' E 014°58'0 0.0
2015-May-15 15:33N 55°13' E 014°58'0 0.0
2015-May-15 14:33N 55°13' E 014°58'0 0.0
2015-May-15 13:33N 55°13' E 014°58'4 3.7
2015-May-15 12:33N 55°15' E 015°03'6 6.1
2015-May-15 11:33N 55°19' E 015°11'0 0.0
2015-May-15 10:33N 55°19' E 015°11'0 0.1
2015-May-15 09:33N 55°19' E 015°11'4 3.8
2015-May-15 08:33N 55°17' E 015°06'6 6.0
2015-May-15 07:33N 55°13' E 014°58'0 0.0
2015-May-15 06:33N 55°13' E 014°58'0 0.0
2015-May-15 05:33N 55°13' E 014°58'0 0.0
2015-May-15 04:33N 55°13' E 014°58'0 0.0
2015-May-15 03:33N 55°13' E 014°58'0 0.0
2015-May-15 02:33N 55°13' E 014°58'0 0.0
2015-May-15 01:33N 55°13' E 014°58'0 0.0
2015-May-15 00:33N 55°13' E 014°58'0 0.0
2015-May-14 23:33N 55°13' E 014°58'0 0.0
2015-May-14 22:33N 55°13' E 014°58'0 0.0
2015-May-14 21:33N 55°13' E 014°58'0 0.0
2015-May-14 20:33N 55°13' E 014°58'0 0.0
2015-May-14 19:33N 55°13' E 014°58'0 0.0
2015-May-14 18:33N 55°13' E 014°58'0 0.0
2015-May-14 17:33N 55°13' E 014°58'0 0.0
2015-May-14 16:33N 55°13' E 014°58'0 0.0
2015-May-14 15:33N 55°13' E 014°58'0 0.0
2015-May-14 14:33N 55°13' E 014°58'0 0.0
2015-May-14 13:33N 55°13' E 014°58'4 3.9
2015-May-14 12:33N 55°16' E 015°03'6 5.9
2015-May-14 11:33N 55°19' E 015°11'0 0.0
2015-May-14 10:33N 55°19' E 015°11'0 0.0
2015-May-14 09:33N 55°19' E 015°11'4 4.3
2015-May-14 08:33N 55°18' E 015°04'6 6.0
2015-May-14 07:33N 55°13' E 014°58'0 0.0
2015-May-14 06:33N 55°13' E 014°58'0 0.0
2015-May-14 05:33N 55°13' E 014°58'0 0.0
2015-May-14 04:33N 55°13' E 014°58'0 0.0
2015-May-14 03:33N 55°13' E 014°58'0 0.0
2015-May-14 02:33N 55°13' E 014°58'0 0.0
2015-May-14 01:33N 55°13' E 014°58'0 0.0
2015-May-14 00:32N 55°13' E 014°58'0 0.0
2015-May-13 23:33N 55°13' E 014°58'0 0.0
2015-May-13 22:33N 55°13' E 014°58'0 0.0
2015-May-13 21:33N 55°13' E 014°58'0 0.0
2015-May-13 20:33N 55°13' E 014°58'0 0.0
2015-May-13 19:33N 55°13' E 014°58'0 0.0
2015-May-13 18:33N 55°13' E 014°58'0 0.0
2015-May-13 17:33N 55°13' E 014°58'0 0.0
2015-May-13 16:33N 55°13' E 014°58'0 0.0
2015-May-13 15:33N 55°13' E 014°58'0 0.0
2015-May-13 14:33N 55°13' E 014°58'0 0.0
2015-May-13 13:33N 55°13' E 014°58'4 4.1
2015-May-13 12:33N 55°16' E 015°02'6 5.9
2015-May-13 11:33N 55°19' E 015°11'0 0.0
2015-May-13 10:33N 55°19' E 015°11'0 0.0
2015-May-13 09:33N 55°19' E 015°11'4 4.4
2015-May-13 08:33N 55°17' E 015°04'6 5.6
2015-May-13 07:33N 55°13' E 014°58'0 0.0
2015-May-13 06:33N 55°13' E 014°58'0 0.0
2015-May-13 05:33N 55°13' E 014°58'0 0.0
2015-May-13 04:33N 55°13' E 014°58'0 0.0
2015-May-13 03:33N 55°13' E 014°58'0 0.0
2015-May-13 02:33N 55°13' E 014°58'0 0.0
2015-May-13 01:33N 55°13' E 014°58'0 0.0
2015-May-13 00:33N 55°13' E 014°58'  

Dump ship's entire track history